Becker, Minnesota
Current Conditions -  °F | °C
As of 10:14 AM on Thursday 23 Oct 2014 (Local Time) from KMGG Reporting Station
Haze Haze  
Wind Chill: 52°   Ceiling: 100
Heat Index: 52°   Visibility: 1.2mi
Dew Point: 52°   Wind: 5mph
Humidity: 99%   Direction: 210°SSW
Pressure: 30.01"   Gusts: NA
Location:  45.39°N, 93.88°W
Report Text: KMGG 231514Z AUTO 21004KT 1 1/4SM BR OVC001 11/11 A3001 RMK AO2 T01130111
Loading
Personal Weather Stations






























Interactive Weather Map
Tropical Storm Tracking
New forecast layout! Learn more

10-Day Weather Forecast

Advertisements
Track Severe Weather on mobile